Time;durP1;ratioP1;P1;durP2;ratioP2;P2;SDS_P1;SDS_P2;PMS_P1;PMS_P2;Temp;Humidity;BMP_temperature;BMP_pressure;BME280_temperature;BME280_humidity;BME280_pressure;Samples;Min_cycle;Max_cycle;Signal;HPM_P1;HPM_P2
2023/08/29 00:00:39;;;;;;;5.07;3.97;;;14.60;90.30;;;;;;5025061;28;20060;-62
2023/08/29 00:03:05;;;;;;;4.40;4.00;;;14.60;90.30;;;;;;5025851;28;20055;-62
2023/08/29 00:05:31;;;;;;;4.70;4.30;;;14.60;90.30;;;;;;5025828;28;20033;-63
2023/08/29 00:07:57;;;;;;;4.50;4.20;;;14.60;90.40;;;;;;5026758;28;20112;-63
2023/08/29 00:10:22;;;;;;;4.70;4.25;;;14.60;90.40;;;;;;5025114;28;21288;-64
2023/08/29 00:12:48;;;;;;;7.78;4.07;;;14.70;90.50;;;;;;5023102;28;20044;-62
2023/08/29 00:15:14;;;;;;;5.30;3.92;;;14.60;90.50;;;;;;5026522;28;20031;-63
2023/08/29 00:17:39;;;;;;;5.78;4.43;;;14.60;90.60;;;;;;5027251;28;20069;-63
2023/08/29 00:20:07;;;;;;;5.78;4.70;;;14.70;90.60;;;;;;5025014;28;20038;-63
2023/08/29 00:22:33;;;;;;;5.65;4.30;;;14.70;90.60;;;;;;5024931;28;20453;-63
2023/08/29 00:24:58;;;;;;;4.25;3.88;;;14.70;90.50;;;;;;5034412;28;20063;-63
2023/08/29 00:27:24;;;;;;;4.80;4.50;;;14.70;90.60;;;;;;5026110;28;20029;-63
2023/08/29 00:29:50;;;;;;;4.53;4.00;;;14.70;90.60;;;;;;5028831;28;20037;-63
2023/08/29 00:32:16;;;;;;;4.68;4.10;;;14.80;90.60;;;;;;5035019;28;20036;-63
2023/08/29 00:34:41;;;;;;;4.93;4.43;;;14.80;90.60;;;;;;5035557;28;20041;-63
2023/08/29 00:37:07;;;;;;;4.65;4.25;;;14.90;90.60;;;;;;5035621;28;20467;-63
2023/08/29 00:39:33;;;;;;;4.63;4.22;;;14.80;90.50;;;;;;5031527;28;20036;-62
2023/08/29 00:42:00;;;;;;;4.75;4.35;;;14.90;90.50;;;;;;5024659;28;20052;-63
2023/08/29 00:44:25;;;;;;;4.43;4.03;;;14.90;90.50;;;;;;5029311;28;20052;-63
2023/08/29 00:46:52;;;;;;;4.82;4.45;;;14.90;90.50;;;;;;5028351;28;20026;-62
2023/08/29 00:49:27;;;;;;;5.07;4.38;;;14.90;90.50;;;;;;5028703;28;20500;-62
2023/08/29 00:51:53;;;;;;;4.50;4.05;;;14.80;90.70;;;;;;5028207;28;20048;-63
2023/08/29 00:54:21;;;;;;;4.80;4.40;;;14.90;90.50;;;;;;5033958;28;20049;-63
2023/08/29 00:56:48;;;;;;;5.07;4.68;;;14.90;90.50;;;;;;5029876;28;20100;-64
2023/08/29 00:59:14;;;;;;;5.13;4.72;;;15.00;90.60;;;;;;5028556;28;20457;-62
2023/08/29 01:01:40;;;;;;;5.18;4.35;;;15.00;90.50;;;;;;5027659;28;20392;-62
2023/08/29 01:04:08;;;;;;;4.85;4.45;;;15.00;90.50;;;;;;5028960;28;20044;-62
2023/08/29 01:06:36;;;;;;;5.15;4.40;;;15.00;90.50;;;;;;5027568;28;20025;-62
2023/08/29 01:09:06;;;;;;;4.95;4.55;;;15.00;90.50;;;;;;5025805;28;20038;-62
2023/08/29 01:11:45;;;;;;;5.10;4.70;;;15.10;90.50;;;;;;5029137;28;20034;-63
2023/08/29 01:14:26;;;;;;;5.32;4.93;;;15.10;90.40;;;;;;5029243;28;20037;-63
2023/08/29 01:17:08;;;;;;;5.57;5.00;;;15.10;90.30;;;;;;5028271;28;20052;-63
2023/08/29 01:19:37;;;;;;;5.45;4.97;;;15.00;90.30;;;;;;5026169;28;20029;-63
2023/08/29 01:22:31;;;;;;;5.60;5.10;;;15.00;90.20;;;;;;5026907;28;20037;-62
2023/08/29 01:25:00;;;;;;;5.40;4.85;;;15.00;90.40;;;;;;5031063;28;20037;-62
2023/08/29 01:27:27;;;;;;;5.40;4.90;;;15.00;90.30;;;;;;5038838;28;20041;-63
2023/08/29 01:29:53;;;;;;;5.70;5.20;;;14.90;90.40;;;;;;5035335;28;20033;-63
2023/08/29 01:32:20;;;;;;;6.63;5.93;;;14.90;90.40;;;;;;5038118;28;20048;-63
2023/08/29 01:34:46;;;;;;;6.20;5.60;;;14.80;90.50;;;;;;5039274;28;20059;-63
2023/08/29 01:37:12;;;;;;;7.20;5.80;;;14.80;90.60;;;;;;5039102;28;20572;-63
2023/08/29 01:39:37;;;;;;;6.55;5.75;;;14.70;90.60;;;;;;5030106;28;20041;-63
2023/08/29 01:42:03;;;;;;;6.70;6.00;;;14.70;90.70;;;;;;5034237;28;20074;-63
2023/08/29 01:44:29;;;;;;;6.78;6.10;;;14.70;90.80;;;;;;5028655;28;20099;-63
2023/08/29 01:46:54;;;;;;;6.47;5.88;;;14.70;90.90;;;;;;5027425;28;20095;-62
2023/08/29 01:49:20;;;;;;;8.25;6.10;;;14.70;90.90;;;;;;5028478;28;20044;-63
2023/08/29 01:51:46;;;;;;;6.82;6.13;;;14.60;90.90;;;;;;5028434;28;20041;-63
2023/08/29 01:54:12;;;;;;;6.70;6.20;;;14.70;90.90;;;;;;5027361;28;20032;-63
2023/08/29 01:56:39;;;;;;;6.70;5.80;;;14.70;91.00;;;;;;5033921;28;20041;-62
2023/08/29 01:59:06;;;;;;;6.35;5.75;;;14.60;91.00;;;;;;5031094;28;20041;-63
2023/08/29 02:01:32;;;;;;;6.53;5.93;;;14.60;91.10;;;;;;5027990;28;20056;-63
2023/08/29 02:03:58;;;;;;;6.68;5.45;;;14.60;91.10;;;;;;5028358;28;20397;-63
2023/08/29 02:06:23;;;;;;;5.80;5.30;;;14.60;91.00;;;;;;5027332;28;20044;-62
2023/08/29 02:08:49;;;;;;;6.07;5.47;;;14.60;90.90;;;;;;5029940;28;20550;-63
2023/08/29 02:11:15;;;;;;;6.47;5.75;;;14.60;91.00;;;;;;5024817;28;20037;-61
2023/08/29 02:13:40;;;;;;;5.93;5.43;;;14.60;91.00;;;;;;5029403;28;20037;-63
2023/08/29 02:16:06;;;;;;;5.80;5.30;;;14.60;91.00;;;;;;5029622;28;20171;-61
2023/08/29 02:18:32;;;;;;;6.75;5.75;;;14.60;91.00;;;;;;5028476;28;20130;-62
2023/08/29 02:20:57;;;;;;;6.45;5.82;;;14.60;91.00;;;;;;5027990;28;20037;-62
2023/08/29 02:23:23;;;;;;;6.63;6.00;;;14.60;91.00;;;;;;5027904;28;20132;-63
2023/08/29 02:26:03;;;;;;;6.47;5.90;;;14.50;91.00;;;;;;5024835;28;20146;-63
2023/08/29 02:28:35;;;;;;;6.47;5.65;;;14.60;91.30;;;;;;5032945;28;20054;-63
2023/08/29 02:31:08;;;;;;;7.13;5.93;;;14.60;91.20;;;;;;5035211;28;20117;-63
2023/08/29 02:33:37;;;;;;;6.25;5.75;;;14.50;91.30;;;;;;5036945;28;20098;-63
2023/08/29 02:36:04;;;;;;;6.47;5.88;;;14.50;91.20;;;;;;5037751;28;20117;-63
2023/08/29 02:38:30;;;;;;;6.80;6.20;;;14.60;91.30;;;;;;5036901;28;20120;-63
2023/08/29 02:40:56;;;;;;;6.90;6.22;;;14.60;91.30;;;;;;5037771;28;20099;-61
2023/08/29 02:43:21;;;;;;;6.43;5.82;;;14.60;91.20;;;;;;5037880;28;20919;-61
2023/08/29 02:45:51;;;;;;;6.93;6.30;;;14.60;91.20;;;;;;5030399;28;20048;-63
2023/08/29 02:48:17;;;;;;;6.05;5.55;;;14.60;91.30;;;;;;5026605;28;20029;-63
2023/08/29 02:50:42;;;;;;;6.70;6.15;;;14.60;91.30;;;;;;5024487;28;20695;-62
2023/08/29 02:53:08;;;;;;;6.38;5.78;;;14.60;91.30;;;;;;5027566;28;20065;-63
2023/08/29 02:55:34;;;;;;;6.40;5.90;;;14.60;91.30;;;;;;5028339;28;20460;-63
2023/08/29 02:57:59;;;;;;;6.13;5.53;;;14.70;91.40;;;;;;5027910;28;20087;-63
2023/08/29 03:00:25;;;;;;;6.07;5.57;;;14.70;91.40;;;;;;5028545;28;20044;-63
2023/08/29 03:02:50;;;;;;;6.22;5.72;;;14.70;91.30;;;;;;5028340;28;20443;-63
2023/08/29 03:05:16;;;;;;;6.10;5.60;;;14.70;91.30;;;;;;5026420;28;20356;-63
2023/08/29 03:07:42;;;;;;;6.25;5.75;;;14.70;91.30;;;;;;5025556;28;20404;-62
2023/08/29 03:10:08;;;;;;;7.03;5.57;;;14.70;91.30;;;;;;5026200;28;20030;-63
2023/08/29 03:12:33;;;;;;;6.13;5.53;;;14.70;91.30;;;;;;5022679;28;20037;-62
2023/08/29 03:14:59;;;;;;;5.68;5.28;;;14.70;91.30;;;;;;5030288;28;20228;-63
2023/08/29 03:17:25;;;;;;;6.10;5.55;;;14.70;91.30;;;;;;5025558;28;20048;-63
2023/08/29 03:19:50;;;;;;;5.75;5.15;;;14.90;91.30;;;;;;5024666;28;20028;-63
2023/08/29 03:22:16;;;;;;;5.70;5.22;;;14.70;91.20;;;;;;5024585;28;20029;-63
2023/08/29 03:24:46;;;;;;;5.90;5.40;;;14.70;91.20;;;;;;5026188;28;20034;-63
2023/08/29 03:27:12;;;;;;;5.82;5.32;;;14.70;91.20;;;;;;5035688;28;20033;-63
2023/08/29 03:29:37;;;;;;;6.28;5.70;;;14.70;91.20;;;;;;5030168;28;20711;-63
2023/08/29 03:32:03;;;;;;;6.30;5.80;;;14.70;91.20;;;;;;5035579;28;20041;-62
2023/08/29 03:34:29;;;;;;;6.05;5.55;;;14.70;91.20;;;;;;5036600;28;20140;-63
2023/08/29 03:36:54;;;;;;;6.32;5.50;;;14.70;91.20;;;;;;5034474;28;20064;-63
2023/08/29 03:39:20;;;;;;;6.50;5.90;;;14.70;91.20;;;;;;5025437;28;20026;-63
2023/08/29 03:41:45;;;;;;;6.00;5.50;;;14.70;91.20;;;;;;5025937;28;20040;-63
2023/08/29 03:44:12;;;;;;;6.15;5.65;;;14.70;91.30;;;;;;5026781;28;20192;-63
2023/08/29 03:46:37;;;;;;;6.50;5.90;;;14.70;91.30;;;;;;5026944;28;20135;-62
2023/08/29 03:49:03;;;;;;;5.72;5.32;;;14.70;91.30;;;;;;5023643;28;20697;-63
2023/08/29 03:51:29;;;;;;;6.13;5.63;;;14.70;91.30;;;;;;5025113;28;20053;-63
2023/08/29 03:53:55;;;;;;;6.07;5.47;;;14.70;91.30;;;;;;5026505;28;20048;-65
2023/08/29 03:56:20;;;;;;;6.10;5.60;;;14.70;91.30;;;;;;5024268;28;20412;-63
2023/08/29 03:58:46;;;;;;;6.45;5.85;;;14.70;91.30;;;;;;5032651;28;20033;-63
2023/08/29 04:01:12;;;;;;;6.95;5.60;;;14.70;91.40;;;;;;5026796;28;20069;-64
2023/08/29 04:03:37;;;;;;;6.00;5.53;;;14.70;91.40;;;;;;5026480;28;20485;-63
2023/08/29 04:06:03;;;;;;;6.05;5.55;;;14.70;91.40;;;;;;5026008;28;20040;-62
2023/08/29 04:08:29;;;;;;;6.28;5.70;;;14.70;91.40;;;;;;5023980;28;20064;-63
2023/08/29 04:10:55;;;;;;;6.32;5.82;;;14.60;91.40;;;;;;5022960;28;20057;-63
2023/08/29 04:13:20;;;;;;;5.65;5.22;;;14.70;91.40;;;;;;5024876;28;20026;-63
2023/08/29 04:15:46;;;;;;;6.32;5.82;;;14.70;91.40;;;;;;5028673;28;20032;-63
2023/08/29 04:18:11;;;;;;;6.57;5.93;;;14.70;91.40;;;;;;5025298;28;20120;-63
2023/08/29 04:20:37;;;;;;;6.15;5.65;;;14.70;91.40;;;;;;5020635;28;20060;-63
2023/08/29 04:23:04;;;;;;;5.63;5.13;;;14.70;91.30;;;;;;5024782;28;20036;-63
2023/08/29 04:25:30;;;;;;;5.75;5.25;;;14.70;91.30;;;;;;5033587;28;20133;-63
2023/08/29 04:27:55;;;;;;;6.28;5.20;;;14.70;91.30;;;;;;5035360;28;20768;-62
2023/08/29 04:30:21;;;;;;;6.30;5.80;;;14.70;91.30;;;;;;5033148;28;20045;-63
2023/08/29 04:32:48;;;;;;;5.97;5.47;;;14.70;91.30;;;;;;5034539;28;20029;-62
2023/08/29 04:35:14;;;;;;;5.65;5.15;;;14.70;91.30;;;;;;5033978;28;20045;-63
2023/08/29 04:37:39;;;;;;;5.90;5.40;;;14.70;91.20;;;;;;5028995;28;20132;-63
2023/08/29 04:40:10;;;;;;;6.28;5.28;;;14.70;91.20;;;;;;5032418;28;20316;-63
2023/08/29 04:42:37;;;;;;;6.15;5.50;;;14.60;91.20;;;;;;5031066;28;20037;-63
2023/08/29 04:45:04;;;;;;;5.95;5.45;;;14.60;91.20;;;;;;5032445;28;20127;-63
2023/08/29 04:47:30;;;;;;;5.63;5.22;;;14.60;91.20;;;;;;5033241;28;20074;-63
2023/08/29 04:49:56;;;;;;;5.93;5.43;;;14.60;91.20;;;;;;5033973;28;20409;-63
2023/08/29 04:52:21;;;;;;;5.25;4.82;;;14.60;91.30;;;;;;5031808;28;20048;-62
2023/08/29 04:54:47;;;;;;;5.68;5.20;;;14.50;91.40;;;;;;5033320;28;20695;-62
2023/08/29 04:57:13;;;;;;;5.97;5.47;;;14.50;91.40;;;;;;5032226;28;20104;-63
2023/08/29 04:59:38;;;;;;;5.43;4.93;;;14.60;91.40;;;;;;5033018;28;20096;-63
2023/08/29 05:02:04;;;;;;;5.38;4.93;;;14.60;91.40;;;;;;5031827;28;20041;-63
2023/08/29 05:04:30;;;;;;;6.18;5.30;;;14.60;91.40;;;;;;5032793;28;20725;-64
2023/08/29 05:06:55;;;;;;;5.93;5.43;;;14.60;91.40;;;;;;5031175;28;20037;-62
2023/08/29 05:09:21;;;;;;;6.38;5.80;;;14.60;91.30;;;;;;5030849;28;20039;-62
2023/08/29 05:11:47;;;;;;;5.88;5.38;;;14.60;91.30;;;;;;5031933;28;20039;-63
2023/08/29 05:14:12;;;;;;;6.63;6.03;;;14.60;91.20;;;;;;5030155;28;20508;-63
2023/08/29 05:16:38;;;;;;;6.88;5.65;;;14.70;91.30;;;;;;5032827;28;20037;-65
2023/08/29 05:19:07;;;;;;;6.03;5.53;;;14.70;91.20;;;;;;5033689;28;20063;-62
2023/08/29 05:21:36;;;;;;;5.68;5.28;;;14.60;91.20;;;;;;5033447;28;20508;-61
2023/08/29 05:24:01;;;;;;;6.22;5.72;;;14.70;91.30;;;;;;5030933;28;20034;-62
2023/08/29 05:26:27;;;;;;;5.40;5.00;;;14.70;91.30;;;;;;5033398;28;20044;-63
2023/08/29 05:28:53;;;;;;;6.18;5.60;;;14.70;91.30;;;;;;5036960;28;20039;-62
2023/08/29 05:31:18;;;;;;;5.88;5.45;;;14.70;91.30;;;;;;5036829;28;20088;-63
2023/08/29 05:33:44;;;;;;;5.50;5.10;;;14.70;91.30;;;;;;5038848;28;20073;-62
2023/08/29 05:36:10;;;;;;;5.93;5.43;;;14.70;91.30;;;;;;5038320;28;20033;-63
2023/08/29 05:38:35;;;;;;;6.05;5.03;;;14.80;91.20;;;;;;5036674;28;20037;-63
2023/08/29 05:41:02;;;;;;;5.15;4.75;;;14.80;91.20;;;;;;5033818;28;20559;-63
2023/08/29 05:43:27;;;;;;;5.55;5.05;;;14.80;91.20;;;;;;5037951;28;20065;-63
2023/08/29 05:45:54;;;;;;;5.50;5.00;;;14.80;91.20;;;;;;5036632;28;20057;-63
2023/08/29 05:48:20;;;;;;;6.03;5.43;;;14.80;91.20;;;;;;5034992;28;20045;-63
2023/08/29 05:50:49;;;;;;;5.30;4.90;;;14.80;91.20;;;;;;5034072;28;20036;-63
2023/08/29 05:53:15;;;;;;;5.65;5.13;;;14.90;91.20;;;;;;5035738;28;20037;-62
2023/08/29 05:55:40;;;;;;;5.68;5.07;;;14.80;91.10;;;;;;5033482;28;20078;-62
2023/08/29 05:58:06;;;;;;;6.07;5.35;;;14.80;91.10;;;;;;5035251;28;20037;-62
2023/08/29 06:00:32;;;;;;;5.78;5.28;;;14.80;91.10;;;;;;5033917;28;20048;-63
2023/08/29 06:02:57;;;;;;;5.68;5.18;;;14.80;91.10;;;;;;5035988;28;20056;-63
2023/08/29 06:05:26;;;;;;;6.00;5.43;;;14.80;91.10;;;;;;5036480;28;20037;-62
2023/08/29 06:07:52;;;;;;;5.78;5.30;;;14.80;91.10;;;;;;5032921;28;20060;-63
2023/08/29 06:10:18;;;;;;;5.50;5.10;;;14.80;91.50;;;;;;5033471;28;20101;-63
2023/08/29 06:12:43;;;;;;;5.60;5.07;;;14.80;91.20;;;;;;5034244;28;20048;-62
2023/08/29 06:15:09;;;;;;;5.72;5.22;;;14.80;91.20;;;;;;5035748;28;20532;-63
2023/08/29 06:17:35;;;;;;;5.78;5.20;;;14.90;91.30;;;;;;5036270;28;20037;-63
2023/08/29 06:20:00;;;;;;;5.82;5.32;;;14.90;91.20;;;;;;5037432;28;20033;-63
2023/08/29 06:22:26;;;;;;;6.07;5.53;;;14.90;91.20;;;;;;5036120;28;20083;-63
2023/08/29 06:24:51;;;;;;;7.00;5.60;;;14.90;91.10;;;;;;5034605;28;20038;-63
2023/08/29 06:27:17;;;;;;;5.75;5.35;;;14.90;91.10;;;;;;5033478;28;20224;-64
2023/08/29 06:29:42;;;;;;;6.13;5.63;;;14.90;91.20;;;;;;5035220;28;20691;-63
2023/08/29 06:32:08;;;;;;;6.25;5.40;;;14.90;91.10;;;;;;5035587;28;20187;-63
2023/08/29 06:34:34;;;;;;;6.10;5.60;;;14.90;91.10;;;;;;5035292;28;20040;-63
2023/08/29 06:36:59;;;;;;;5.70;5.10;;;14.90;91.10;;;;;;5033460;28;20506;-63
2023/08/29 06:39:25;;;;;;;5.53;5.03;;;14.90;91.00;;;;;;5033734;28;20041;-63
2023/08/29 06:41:51;;;;;;;5.88;5.38;;;14.90;91.00;;;;;;5034629;28;20063;-63
2023/08/29 06:44:16;;;;;;;5.20;4.80;;;14.90;91.00;;;;;;5034799;28;20029;-63
2023/08/29 06:46:42;;;;;;;5.53;5.03;;;14.90;91.00;;;;;;5033469;28;20034;-63
2023/08/29 06:49:07;;;;;;;5.03;4.63;;;14.90;91.10;;;;;;5035171;28;20113;-63
2023/08/29 06:51:34;;;;;;;5.07;4.68;;;14.90;91.10;;;;;;5036843;28;20041;-63
2023/08/29 06:53:59;;;;;;;5.15;4.75;;;14.90;91.20;;;;;;5036120;28;20029;-64
2023/08/29 06:56:25;;;;;;;5.55;5.05;;;15.00;91.20;;;;;;5032236;28;20519;-63
2023/08/29 06:58:51;;;;;;;5.18;4.68;;;15.00;91.10;;;;;;5035114;28;20057;-62
2023/08/29 07:01:16;;;;;;;6.25;5.65;;;15.00;91.00;;;;;;5035504;28;20500;-63
2023/08/29 07:03:42;;;;;;;5.30;4.80;;;15.00;91.10;;;;;;5036908;28;20079;-63
2023/08/29 07:06:08;;;;;;;4.75;4.35;;;15.00;91.20;;;;;;5032851;28;20140;-63
2023/08/29 07:08:34;;;;;;;4.50;4.10;;;15.00;91.20;;;;;;5031221;28;20152;-63
2023/08/29 07:10:59;;;;;;;4.57;4.18;;;15.00;91.20;;;;;;5028454;28;20755;-63
2023/08/29 07:13:25;;;;;;;4.53;4.13;;;15.00;91.20;;;;;;5035307;28;20531;-63
2023/08/29 07:15:50;;;;;;;4.22;3.92;;;15.00;91.10;;;;;;5032858;28;20041;-63
2023/08/29 07:18:16;;;;;;;4.90;3.60;;;15.00;91.10;;;;;;5033095;28;20120;-63
2023/08/29 07:20:42;;;;;;;3.50;3.20;;;15.00;91.00;;;;;;5034469;28;20037;-63
2023/08/29 07:23:07;;;;;;;2.35;2.15;;;15.10;91.10;;;;;;5036399;28;20120;-63
2023/08/29 07:25:41;;;;;;;2.20;2.10;;;15.00;91.00;;;;;;5032171;28;20250;-63
2023/08/29 07:28:09;;;;;;;2.00;1.90;;;15.10;90.80;;;;;;5034740;28;20429;-63
2023/08/29 07:30:38;;;;;;;2.20;2.10;;;15.00;90.70;;;;;;5034101;28;20520;-63
2023/08/29 07:33:04;;;;;;;2.20;2.00;;;15.00;90.70;;;;;;5037618;28;20279;-63
2023/08/29 07:35:29;;;;;;;2.25;2.10;;;15.00;90.80;;;;;;5037500;28;20037;-63
2023/08/29 07:37:55;;;;;;;2.63;2.42;;;14.90;90.80;;;;;;5034697;28;20485;-63
2023/08/29 07:40:20;;;;;;;2.70;2.50;;;15.00;91.00;;;;;;5048136;28;20172;-63
2023/08/29 07:42:47;;;;;;;2.85;2.65;;;14.90;91.20;;;;;;5033782;28;20384;-63
2023/08/29 07:45:12;;;;;;;2.75;2.55;;;15.00;91.30;;;;;;5035083;28;20025;-63
2023/08/29 07:47:38;;;;;;;3.10;2.90;;;15.00;91.30;;;;;;5035304;28;20033;-63
2023/08/29 07:50:04;;;;;;;3.25;2.85;;;15.00;91.30;;;;;;5033636;28;20489;-62
2023/08/29 07:52:29;;;;;;;3.70;3.40;;;15.10;91.30;;;;;;5032830;28;20048;-62
2023/08/29 07:54:58;;;;;;;3.33;3.13;;;15.10;91.30;;;;;;5035055;28;20107;-63
2023/08/29 07:57:23;;;;;;;4.43;4.10;;;15.10;91.30;;;;;;5033403;28;20036;-62
2023/08/29 07:59:49;;;;;;;4.70;4.32;;;15.10;91.40;;;;;;5033720;28;20025;-63
2023/08/29 08:02:14;;;;;;;4.82;4.43;;;15.10;91.40;;;;;;5029481;28;20094;-63
2023/08/29 08:04:40;;;;;;;4.93;4.43;;;15.20;91.50;;;;;;5034296;28;20501;-63
2023/08/29 08:07:06;;;;;;;4.55;4.20;;;15.20;91.50;;;;;;5034208;28;20037;-63
2023/08/29 08:09:31;;;;;;;4.78;4.38;;;15.30;91.50;;;;;;5034191;28;20040;-63
2023/08/29 08:11:57;;;;;;;4.90;4.50;;;15.30;91.50;;;;;;5032436;28;20776;-63
2023/08/29 08:14:22;;;;;;;4.65;4.25;;;15.30;91.50;;;;;;5034998;28;20041;-63
2023/08/29 08:16:48;;;;;;;4.97;4.57;;;15.30;91.40;;;;;;5035060;28;20033;-63
2023/08/29 08:19:14;;;;;;;4.68;4.38;;;15.30;91.50;;;;;;5035541;28;20508;-61
2023/08/29 08:21:39;;;;;;;4.40;4.10;;;15.30;91.50;;;;;;5030241;28;20043;-63
2023/08/29 08:24:07;;;;;;;5.25;4.85;;;15.30;91.60;;;;;;5036211;28;20519;-62
2023/08/29 08:26:32;;;;;;;5.07;4.70;;;15.40;91.70;;;;;;5034642;28;20036;-61
2023/08/29 08:28:59;;;;;;;4.70;4.30;;;15.40;91.70;;;;;;5034724;28;20028;-62
2023/08/29 08:31:25;;;;;;;5.03;4.55;;;15.40;91.70;;;;;;5032547;28;20043;-63
2023/08/29 08:33:51;;;;;;;4.97;4.57;;;15.40;91.80;;;;;;5034585;28;20029;-63
2023/08/29 08:36:17;;;;;;;4.85;4.30;;;15.40;92.00;;;;;;5035475;28;20037;-63
2023/08/29 08:38:42;;;;;;;4.90;4.50;;;15.50;91.80;;;;;;5032299;28;20087;-61
2023/08/29 08:41:10;;;;;;;4.63;4.22;;;15.50;91.80;;;;;;5034820;28;20121;-62
2023/08/29 08:43:38;;;;;;;4.40;4.10;;;15.60;91.90;;;;;;5035624;28;20037;-63
2023/08/29 08:46:05;;;;;;;4.75;4.35;;;15.60;91.90;;;;;;5035763;28;20059;-63
2023/08/29 08:48:30;;;;;;;4.90;4.50;;;15.60;91.90;;;;;;5033224;28;20045;-63
2023/08/29 08:50:58;;;;;;;4.47;4.10;;;15.70;92.10;;;;;;5032512;28;20570;-63
2023/08/29 08:53:25;;;;;;;4.57;4.28;;;15.80;92.10;;;;;;5033286;28;20068;-63
2023/08/29 08:55:51;;;;;;;5.40;4.35;;;15.80;91.70;;;;;;5032119;28;20098;-62
2023/08/29 08:58:18;;;;;;;4.60;4.20;;;15.80;91.50;;;;;;5032316;28;20406;-62
2023/08/29 09:00:43;;;;;;;4.35;4.05;;;15.90;91.70;;;;;;5032828;28;20088;-63
2023/08/29 09:03:10;;;;;;;4.30;4.00;;;15.90;91.70;;;;;;5036980;28;20041;-62
2023/08/29 09:05:35;;;;;;;4.15;3.85;;;15.90;91.50;;;;;;5037219;28;20094;-63
2023/08/29 09:08:01;;;;;;;4.45;4.15;;;15.90;91.30;;;;;;5035359;28;20485;-63
2023/08/29 09:10:32;;;;;;;4.20;3.80;;;15.90;91.20;;;;;;5033996;28;20037;-63
2023/08/29 09:12:57;;;;;;;4.43;4.03;;;15.90;91.00;;;;;;5037438;28;20112;-63
2023/08/29 09:15:25;;;;;;;4.13;3.83;;;15.90;91.10;;;;;;5052618;28;20116;-63
2023/08/29 09:17:53;;;;;;;4.07;3.78;;;16.00;91.20;;;;;;5039306;28;20546;-62
2023/08/29 09:20:21;;;;;;;4.40;4.00;;;16.00;91.20;;;;;;5038911;28;20056;-62
2023/08/29 09:22:47;;;;;;;4.22;3.92;;;16.00;91.10;;;;;;5035462;28;20044;-62
2023/08/29 09:25:13;;;;;;;4.35;4.05;;;16.00;91.10;;;;;;5035902;28;20155;-62
2023/08/29 09:27:40;;;;;;;5.60;4.47;;;16.00;91.20;;;;;;5037903;28;20041;-61
2023/08/29 09:30:08;;;;;;;4.72;4.32;;;16.00;91.20;;;;;;5037645;28;20573;-62
2023/08/29 09:32:33;;;;;;;4.95;4.55;;;16.00;91.50;;;;;;5039718;28;20025;-62
2023/08/29 09:35:00;;;;;;;4.78;4.47;;;16.00;91.70;;;;;;5040774;28;20044;-61
2023/08/29 09:37:25;;;;;;;5.07;4.57;;;16.10;91.70;;;;;;5038247;28;20107;-62
2023/08/29 09:39:53;;;;;;;4.45;4.05;;;16.10;91.60;;;;;;5036533;28;20468;-62
2023/08/29 09:42:21;;;;;;;4.88;4.57;;;16.20;91.50;;;;;;5036811;28;20047;-61
2023/08/29 09:44:49;;;;;;;4.40;4.10;;;16.20;91.50;;;;;;5037137;28;20461;-62
2023/08/29 09:47:25;;;;;;;4.75;4.35;;;16.30;91.30;;;;;;5037369;28;20037;-62
2023/08/29 09:49:50;;;;;;;4.90;4.50;;;16.30;91.00;;;;;;5036659;28;20041;-61
2023/08/29 09:52:17;;;;;;;4.95;4.47;;;16.30;91.00;;;;;;5035456;28;20041;-62
2023/08/29 09:54:52;;;;;;;4.55;4.18;;;16.30;91.20;;;;;;5036708;28;20033;-62
2023/08/29 09:57:21;;;;;;;4.38;4.07;;;16.30;90.80;;;;;;5034982;28;20664;-61
2023/08/29 09:59:50;;;;;;;4.60;4.20;;;16.30;91.00;;;;;;5038376;28;20119;-62
2023/08/29 10:02:20;;;;;;;4.85;4.45;;;16.30;91.10;;;;;;5036345;28;20040;-62
2023/08/29 10:04:48;;;;;;;4.68;4.30;;;16.30;91.20;;;;;;5034205;28;20035;-60
2023/08/29 10:07:15;;;;;;;4.93;4.53;;;16.30;91.10;;;;;;5037586;28;20037;-61
2023/08/29 10:09:42;;;;;;;4.50;4.20;;;16.40;91.10;;;;;;5034765;28;20045;-61
2023/08/29 10:12:09;;;;;;;5.22;4.72;;;16.40;91.10;;;;;;5034961;28;20660;-61
2023/08/29 10:14:36;;;;;;;4.13;3.80;;;16.40;91.10;;;;;;5037262;28;20083;-61
2023/08/29 10:17:02;;;;;;;4.00;3.70;;;16.40;91.00;;;;;;5037896;28;20447;-62
2023/08/29 10:19:30;;;;;;;3.70;3.50;;;16.50;91.00;;;;;;5039253;28;20033;-62
2023/08/29 10:21:57;;;;;;;4.10;3.80;;;16.40;90.80;;;;;;5035764;28;20041;-61
2023/08/29 10:24:23;;;;;;;3.83;3.53;;;16.40;90.70;;;;;;5034804;28;20068;-63
2023/08/29 10:26:49;;;;;;;3.58;3.22;;;16.50;90.80;;;;;;5036591;28;20055;-62
2023/08/29 10:29:16;;;;;;;3.70;3.40;;;16.40;90.50;;;;;;5035544;28;20033;-63
2023/08/29 10:31:45;;;;;;;3.50;3.20;;;16.40;90.60;;;;;;5033084;28;20472;-63
2023/08/29 10:34:13;;;;;;;3.97;3.67;;;16.40;90.60;;;;;;5036077;28;20512;-62
2023/08/29 10:36:39;;;;;;;3.67;3.47;;;16.30;90.50;;;;;;5035236;28;22111;-63
2023/08/29 10:39:09;;;;;;;2.95;2.70;;;16.30;90.80;;;;;;5033167;28;20038;-63
2023/08/29 10:41:48;;;;;;;2.40;2.30;;;16.30;90.90;;;;;;5048328;28;20068;-62
2023/08/29 10:44:23;;;;;;;2.10;2.00;;;16.30;90.70;;;;;;5037493;28;20107;-63
2023/08/29 10:46:52;;;;;;;2.10;2.00;;;16.30;90.60;;;;;;5035319;28;20037;-63
2023/08/29 10:49:21;;;;;;;1.50;1.40;;;16.30;90.60;;;;;;5037062;28;20049;-61
2023/08/29 10:52:08;;;;;;;1.70;1.60;;;16.30;90.40;;;;;;5036413;28;20122;-62
2023/08/29 10:54:33;;;;;;;1.75;1.65;;;16.30;90.20;;;;;;5034334;28;20040;-62
2023/08/29 10:57:00;;;;;;;1.88;1.77;;;16.30;90.50;;;;;;5034866;28;20033;-63
2023/08/29 10:59:29;;;;;;;2.20;2.00;;;16.30;90.60;;;;;;5036333;28;20041;-62
2023/08/29 11:02:41;;;;;;;2.13;1.58;;;16.30;90.70;;;;;;5034604;28;20032;-63
2023/08/29 11:05:07;;;;;;;1.40;1.30;;;16.30;90.10;;;;;;5051857;28;20112;-62
2023/08/29 11:07:34;;;;;;;1.70;1.60;;;16.30;90.50;;;;;;5050696;28;20642;-62
2023/08/29 11:10:13;;;;;;;2.17;1.60;;;16.40;90.40;;;;;;5041801;28;20034;-63
2023/08/29 11:13:01;;;;;;;2.90;1.98;;;16.40;89.70;;;;;;5033339;28;20459;-63
2023/08/29 11:15:49;;;;;;;2.05;1.95;;;16.40;90.10;;;;;;5034040;28;20063;-62
2023/08/29 11:18:32;;;;;;;2.20;2.10;;;16.40;89.90;;;;;;5034992;28;20033;-63
2023/08/29 11:21:03;;;;;;;2.75;2.50;;;16.40;90.20;;;;;;5034228;28;20095;-63
2023/08/29 11:23:33;;;;;;;2.92;2.70;;;16.50;90.30;;;;;;5034734;28;20496;-63
2023/08/29 11:25:59;;;;;;;2.97;2.78;;;16.50;90.50;;;;;;5033066;28;20160;-63
2023/08/29 11:28:25;;;;;;;2.85;2.65;;;16.60;90.70;;;;;;5035443;28;20108;-62
2023/08/29 11:30:51;;;;;;;2.50;2.40;;;16.60;90.80;;;;;;5036070;28;20061;-63
2023/08/29 11:33:16;;;;;;;2.60;2.17;;;16.60;90.80;;;;;;5037254;28;20112;-62
2023/08/29 11:35:42;;;;;;;1.95;1.85;;;16.70;90.60;;;;;;5038350;28;20617;-63
2023/08/29 11:38:08;;;;;;;2.40;2.20;;;16.80;90.50;;;;;;5032931;28;20043;-62
2023/08/29 11:40:34;;;;;;;1.98;1.88;;;16.80;90.30;;;;;;5036036;28;20041;-62
2023/08/29 11:43:00;;;;;;;2.15;2.05;;;16.90;90.40;;;;;;5034657;28;20108;-62
2023/08/29 11:45:29;;;;;;;2.10;1.92;;;16.90;89.90;;;;;;5031541;28;20489;-62
2023/08/29 11:47:55;;;;;;;2.03;1.90;;;16.90;89.80;;;;;;5035315;28;20033;-62
2023/08/29 11:50:22;;;;;;;2.47;2.10;;;17.00;89.90;;;;;;5034796;28;20150;-63
2023/08/29 11:52:47;;;;;;;1.92;1.83;;;17.00;89.70;;;;;;5032011;28;20033;-61
2023/08/29 11:55:15;;;;;;;2.22;2.05;;;17.00;89.10;;;;;;5035424;28;20056;-62
2023/08/29 11:57:44;;;;;;;2.28;2.10;;;17.10;89.40;;;;;;5033538;28;20037;-62
2023/08/29 12:00:10;;;;;;;2.10;2.00;;;17.10;89.30;;;;;;5034860;28;20120;-62
2023/08/29 12:02:36;;;;;;;2.63;2.42;;;17.10;88.80;;;;;;5033144;28;20539;-62
2023/08/29 12:05:10;;;;;;;2.60;2.40;;;17.10;88.90;;;;;;5033931;28;20030;-62
2023/08/29 12:07:35;;;;;;;2.50;2.30;;;17.10;88.60;;;;;;5032806;28;20033;-62
2023/08/29 12:10:14;;;;;;;2.30;2.10;;;17.10;89.20;;;;;;5034948;28;20519;-62
2023/08/29 12:12:40;;;;;;;1.98;1.80;;;17.20;89.60;;;;;;5030531;28;20179;-62
2023/08/29 12:15:16;;;;;;;2.20;2.00;;;17.20;88.60;;;;;;5033217;28;20037;-62
2023/08/29 12:17:44;;;;;;;2.20;2.10;;;17.10;88.20;;;;;;5035562;28;20037;-62
2023/08/29 12:20:12;;;;;;;2.20;2.10;;;17.20;88.80;;;;;;5033858;28;20037;-62
2023/08/29 12:22:39;;;;;;;2.63;2.42;;;17.20;89.20;;;;;;5033823;28;20037;-61
2023/08/29 12:25:05;;;;;;;2.63;2.42;;;17.20;89.00;;;;;;5033098;28;20516;-62
2023/08/29 12:27:31;;;;;;;2.60;2.40;;;17.20;88.60;;;;;;5033777;28;20560;-62
2023/08/29 12:29:56;;;;;;;2.40;2.20;;;17.30;88.20;;;;;;5032122;28;20029;-60
2023/08/29 12:32:27;;;;;;;2.33;2.20;;;17.20;87.70;;;;;;5033050;28;20050;-61
2023/08/29 12:34:52;;;;;;;1.85;1.60;;;17.30;87.40;;;;;;5034316;28;20052;-61
2023/08/29 12:37:18;;;;;;;1.80;1.70;;;17.30;88.40;;;;;;5031236;28;20034;-62
2023/08/29 12:39:44;;;;;;;1.88;1.52;;;17.30;87.00;;;;;;5034294;28;20091;-62
2023/08/29 12:42:09;;;;;;;1.50;1.40;;;17.30;87.20;;;;;;5034387;28;20045;-62
2023/08/29 12:44:35;;;;;;;1.50;1.40;;;17.40;87.30;;;;;;5033053;28;20037;-61
2023/08/29 12:47:00;;;;;;;1.33;1.23;;;17.30;86.80;;;;;;5034823;28;20459;-61